Main page
METAR-TAF:

METAR-TAF

Airports :

Istanbul Atatürk, Turkey

Istanbul Atatürk Airport

latitude: 40-58N, longitude: 028-49E, elevation: 48 m

Current weather observation

The report was made 39 minutes ago, at 09:20 UTC
Wind 9 kt from the Southwest
Temperature 20°C
Humidity 78%
Pressure 1015 hPa
Visibility 10 km or more
no clouds below 1500 m and no cumulonimbus

METAR: LTBA 220920Z 23009KT CAVOK 20/16 Q1015 NOSIG RMK RWY17L 34008KT 310V010 RWY05 22009KT RWY23 24010KT

Time: 12:59 (09:59 UTC)

Forecast

The report was made 5 hours and 19 minutes ago, at 04:40 UTC
Forecast valid from 22 at 06 UTC to 23 at 12 UTC
Wind 8 kt from the South/Southwest
Visibility 10 km or more
no clouds below 1500 m and no cumulonimbus
Becoming
from 22 at 11 UTC to 22 at 14 UTC
Wind 12 kt from the North/Northeast
Becoming
from 22 at 22 UTC to 23 at 02 UTC
Wind 2 kt from variable directions

TAF: LTBA 220440Z 2206/2312 21008KT CAVOK BECMG 2211/2214 02012KT BECMG 2222/2302 VRB02KT

Weather observations and forecasts of more than 4000 airports (METAR and TAF reports).

The available stations are represented by yellow and red dots on the map.

Hover mouse over dot to see the name of the station.

Then click to see weather observations and forecasts.

To change the map : click on the green buttons with a black cross to zoom in, on the green button with a dash to zoom out, or on the green arrows for adjacent maps.


METAR-TAF: